Terminal Aerodrome Forecast
Issued by NWS

Home | Current Version | Previous Version | Text Only | Print | Product List | Glossary On
Versions: 1 2 3 4 5 6 7 8 9 10 11 12 13 14 15 16
000
FTUS43 KMQT 282335
TAFSAW
TAF
KSAW 282335Z 2900/2924 05004KT P6SM SKC
     FM290500 00000KT P6SM SCT200
     FM290900 00000KT 4SM BR SCT200
     FM291100 18003KT 2SM BR BKN015
     FM291300 19004KT P6SM SCT025
     FM291400 19006KT P6SM SCT030
     FM291500 20007KT P6SM BKN030=

USA.gov is the U.S. government's official web portal to all federal, state and local government web resources and services.